Time;durP1;ratioP1;P1;durP2;ratioP2;P2;SDS_P1;SDS_P2;PMS_P1;PMS_P2;Temp;Humidity;BMP_temperature;BMP_pressure;BME280_temperature;BME280_humidity;BME280_pressure;Samples;Min_cycle;Max_cycle;Signal;HPM_P1;HPM_P2
2021/07/04 00:00:01;;;;;;;11.57;8.50;;;;;;;15.46;94.89;95435.50;5070478;28;20048;-77
2021/07/04 00:02:27;;;;;;;12.27;9.05;;;;;;;15.44;95.18;95443.00;5070384;28;20425;-76
2021/07/04 00:04:52;;;;;;;13.45;9.05;;;;;;;15.39;95.54;95431.41;5062345;28;20108;-76
2021/07/04 00:07:18;;;;;;;13.07;8.32;;;;;;;15.42;95.17;95435.34;5088560;28;20379;-77
2021/07/04 00:09:44;;;;;;;12.23;9.30;;;;;;;15.37;96.20;95436.25;5055861;28;20088;-77
2021/07/04 00:12:09;;;;;;;14.40;8.82;;;;;;;15.35;95.93;95430.44;5068672;28;20469;-77
2021/07/04 00:14:35;;;;;;;13.05;9.00;;;;;;;15.37;96.04;95433.59;5069358;28;20124;-77
2021/07/04 00:17:02;;;;;;;13.55;9.23;;;;;;;15.38;96.27;95435.16;5068283;28;20044;-77
2021/07/04 00:19:28;;;;;;;13.93;9.40;;;;;;;15.42;96.51;95436.13;5068710;28;20080;-77
2021/07/04 00:21:54;;;;;;;14.63;9.70;;;;;;;15.41;96.29;95434.56;5069856;28;20060;-76
2021/07/04 00:24:20;;;;;;;16.92;10.30;;;;;;;15.41;97.46;95434.56;5069365;28;20413;-76
2021/07/04 00:26:45;;;;;;;13.88;9.38;;;;;;;15.48;96.45;95436.78;5069848;28;20073;-76
2021/07/04 00:29:11;;;;;;;14.68;9.32;;;;;;;15.47;97.29;95439.72;5072217;28;20085;-76
2021/07/04 00:31:36;;;;;;;13.27;9.50;;;;;;;15.48;96.74;95436.78;5079537;28;20036;-76
2021/07/04 00:34:02;;;;;;;16.85;9.68;;;;;;;15.44;96.58;95432.38;5069745;28;20041;-76
2021/07/04 00:36:28;;;;;;;15.10;9.65;;;;;;;15.40;96.75;95425.03;5073300;28;20051;-76
2021/07/04 00:38:54;;;;;;;15.27;10.20;;;;;;;15.39;97.30;95426.13;5071446;28;20119;-76
2021/07/04 00:41:19;;;;;;;16.42;10.38;;;;;;;15.40;97.46;95427.69;5062809;28;20036;-76
2021/07/04 00:43:47;;;;;;;14.38;10.10;;;;;;;15.37;97.36;95428.31;5070760;28;20040;-76
2021/07/04 00:46:14;;;;;;;15.57;9.93;;;;;;;15.39;97.56;95428.78;5073615;28;20037;-76
2021/07/04 00:48:39;;;;;;;15.93;10.57;;;;;;;15.38;97.88;95421.88;5064980;28;20041;-76
2021/07/04 00:51:05;;;;;;;14.38;8.98;;;;;;;15.41;97.79;95423.16;5070318;28;20036;-76
2021/07/04 00:53:31;;;;;;;15.57;9.80;;;;;;;15.37;97.78;95420.34;5093499;28;20055;-76
2021/07/04 00:55:56;;;;;;;15.50;9.55;;;;;;;15.38;97.93;95421.88;5076426;28;20039;-76
2021/07/04 00:58:22;;;;;;;14.27;10.30;;;;;;;15.37;98.05;95423.00;5065770;28;20490;-76
2021/07/04 01:00:48;;;;;;;16.00;10.85;;;;;;;15.39;98.44;95415.50;5054664;28;20159;-76
2021/07/04 01:03:14;;;;;;;16.38;9.98;;;;;;;15.34;98.29;95413.00;5073011;28;20154;-76
2021/07/04 01:05:42;;;;;;;18.50;10.10;;;;;;;15.35;98.37;95403.94;5078856;28;20120;-76
2021/07/04 01:08:09;;;;;;;15.32;9.30;;;;;;;15.33;98.44;95411.44;5071244;28;20090;-76
2021/07/04 01:10:40;;;;;;;14.43;9.63;;;;;;;15.31;97.96;95413.56;5066525;28;20040;-75
2021/07/04 01:13:07;;;;;;;15.43;10.60;;;;;;;15.30;99.12;95406.72;5071093;28;20044;-75
2021/07/04 01:15:33;;;;;;;14.40;9.82;;;;;;;15.34;98.52;95402.41;5070496;28;20520;-76
2021/07/04 01:18:01;;;;;;;17.73;10.57;;;;;;;15.27;98.67;95402.03;5071864;28;20041;-76
2021/07/04 01:20:28;;;;;;;13.65;9.93;;;;;;;15.24;99.15;95402.59;5066916;28;20440;-76
2021/07/04 01:22:55;;;;;;;14.40;10.05;;;;;;;15.29;98.85;95405.16;5079067;28;20044;-76
2021/07/04 01:25:22;;;;;;;16.42;10.60;;;;;;;15.25;98.62;95399.66;5087661;28;20681;-75
2021/07/04 01:27:47;;;;;;;15.45;10.35;;;;;;;15.25;98.66;95401.53;5060629;28;20120;-76
2021/07/04 01:30:14;;;;;;;14.20;9.80;;;;;;;15.24;98.67;95402.59;5071484;28;20468;-75
2021/07/04 01:32:39;;;;;;;15.63;10.43;;;;;;;15.26;99.22;95397.81;5081141;28;20120;-76
2021/07/04 01:35:06;;;;;;;13.45;9.73;;;;;;;15.28;99.17;95398.28;5070487;28;20115;-76
2021/07/04 01:37:31;;;;;;;13.52;9.93;;;;;;;15.24;99.13;95399.97;5076960;28;20047;-76
2021/07/04 01:39:57;;;;;;;17.40;9.95;;;;;;;15.23;99.01;95398.41;5070575;28;20111;-76
2021/07/04 01:42:23;;;;;;;14.20;9.93;;;;;;;15.19;98.67;95395.56;5074194;28;20123;-76
2021/07/04 01:44:48;;;;;;;15.32;9.55;;;;;;;15.16;98.57;95390.09;5072542;28;20037;-76
2021/07/04 01:47:14;;;;;;;13.38;9.88;;;;;;;15.17;99.10;95391.66;5070735;28;20098;-76
2021/07/04 01:49:39;;;;;;;14.57;9.25;;;;;;;15.27;98.54;95394.06;5067432;28;20051;-76
2021/07/04 01:52:05;;;;;;;14.55;9.77;;;;;;;15.26;98.97;95389.84;5056771;28;20049;-76
2021/07/04 01:54:32;;;;;;;15.43;10.13;;;;;;;15.19;98.61;95384.97;5070662;28;20490;-76
2021/07/04 01:56:57;;;;;;;14.63;9.32;;;;;;;15.19;99.40;95384.19;5086823;28;20383;-77
2021/07/04 01:59:23;;;;;;;12.23;9.52;;;;;;;15.14;99.38;95381.66;5066712;28;20482;-76
2021/07/04 02:01:49;;;;;;;14.98;10.35;;;;;;;15.11;99.41;95382.25;5066132;28;20070;-76
2021/07/04 02:04:15;;;;;;;17.00;10.88;;;;;;;15.13;100.00;95380.88;5071703;28;20116;-77
2021/07/04 02:06:40;;;;;;;17.65;10.48;;;;;;;15.16;99.55;95376.84;5071030;28;20055;-77
2021/07/04 02:09:06;;;;;;;0.50;0.50;;;;;;;15.16;99.29;95368.91;5069272;28;20457;-76
2021/07/04 02:11:31;;;;;;;13.30;9.40;;;;;;;15.17;99.58;95373.09;5069197;28;20135;-78
2021/07/04 02:13:57;;;;;;;15.35;10.45;;;;;;;15.16;100.00;95374.19;5068222;28;20036;-77
2021/07/04 02:16:22;;;;;;;13.45;9.60;;;;;;;15.17;100.00;95365.13;5075422;28;20039;-77
2021/07/04 02:18:51;;;;;;;14.15;9.70;;;;;;;15.11;99.49;95367.13;5085717;28;20040;-77
2021/07/04 02:21:16;;;;;;;14.15;10.02;;;;;;;15.13;99.81;95369.47;5068473;28;20044;-77
2021/07/04 02:23:42;;;;;;;14.77;10.10;;;;;;;15.17;100.00;95370.44;5071381;28;20083;-77
2021/07/04 02:26:07;;;;;;;13.95;9.63;;;;;;;15.20;99.24;95359.22;5085161;28;20051;-77
2021/07/04 02:28:33;;;;;;;13.82;10.27;;;;;;;15.24;100.00;95370.81;5062965;28;20036;-77
2021/07/04 02:30:59;;;;;;;14.38;10.30;;;;;;;15.19;99.70;95368.28;5074787;28;20414;-77
2021/07/04 02:33:26;;;;;;;16.42;10.80;;;;;;;15.19;99.84;95365.63;5057574;28;20076;-77
2021/07/04 02:35:55;;;;;;;16.23;10.30;;;;;;;15.19;99.50;95365.63;5054866;28;20044;-77
2021/07/04 02:38:22;;;;;;;15.27;10.13;;;;;;;15.19;99.82;95363.00;5062467;28;20062;-77
2021/07/04 02:40:49;;;;;;;17.33;10.70;;;;;;;15.17;100.00;95359.84;5068781;28;20051;-76
2021/07/04 02:43:17;;;;;;;16.58;10.35;;;;;;;15.19;99.57;95363.75;5069433;28;20052;-77
2021/07/04 02:45:44;;;;;;;14.63;10.00;;;;;;;15.24;99.85;95368.16;5070032;28;20045;-76
2021/07/04 02:48:10;;;;;;;14.80;9.98;;;;;;;15.22;99.40;95365.03;5069689;28;20071;-76
2021/07/04 02:50:41;;;;;;;15.25;10.48;;;;;;;15.24;99.42;95365.50;5074825;28;20040;-77
2021/07/04 02:53:07;;;;;;;14.50;10.32;;;;;;;15.20;99.66;95364.53;5070531;28;20544;-77
2021/07/04 02:55:32;;;;;;;15.93;10.10;;;;;;;15.21;99.76;95360.81;5071750;28;20040;-77
2021/07/04 02:57:58;;;;;;;18.10;10.30;;;;;;;15.20;99.82;95361.88;5070212;28;20086;-76
2021/07/04 03:00:25;;;;;;;14.70;10.30;;;;;;;15.19;100.00;95369.06;5087257;28;20048;-77
2021/07/04 03:02:51;;;;;;;16.15;11.48;;;;;;;15.23;100.00;95369.25;5070486;28;20056;-77
2021/07/04 03:05:17;;;;;;;14.75;11.25;;;;;;;15.22;100.00;95365.03;5062664;28;20555;-76
2021/07/04 03:07:44;;;;;;;14.70;10.50;;;;;;;15.23;100.00;95363.94;5055795;28;20036;-77
2021/07/04 03:10:12;;;;;;;15.98;10.77;;;;;;;15.25;100.00;95367.06;5066437;28;20045;-77
2021/07/04 03:12:38;;;;;;;15.00;10.35;;;;;;;15.26;99.64;95373.94;5088444;28;20040;-77
2021/07/04 03:15:06;;;;;;;15.82;9.88;;;;;;;15.25;99.52;95372.38;5069433;28;20115;-77
2021/07/04 03:17:31;;;;;;;15.05;10.00;;;;;;;15.27;98.86;95375.53;5070931;28;20036;-77
2021/07/04 03:19:57;;;;;;;15.38;9.35;;;;;;;15.25;98.70;95367.06;5067734;28;20318;-77
2021/07/04 03:22:23;;;;;;;15.07;10.23;;;;;;;15.22;99.35;95370.34;5072145;28;20045;-77
2021/07/04 03:24:49;;;;;;;15.30;10.15;;;;;;;15.19;99.68;95366.41;5069380;28;20036;-77
2021/07/04 03:27:15;;;;;;;19.38;10.77;;;;;;;15.17;99.46;95359.84;5063192;28;20437;-77
2021/07/04 03:29:40;;;;;;;15.40;9.77;;;;;;;15.20;100.00;95370.63;5071576;28;20047;-77
2021/07/04 03:32:06;;;;;;;14.38;9.27;;;;;;;15.16;99.18;95366.25;5075977;28;20045;-77
2021/07/04 03:34:32;;;;;;;13.88;9.43;;;;;;;15.15;98.91;95362.03;5062860;28;20036;-77
2021/07/04 03:36:58;;;;;;;14.60;8.65;;;;;;;15.15;99.14;95362.03;5054756;28;20491;-77
2021/07/04 03:39:23;;;;;;;15.20;9.55;;;;;;;15.14;98.81;95360.44;5065584;28;20035;-77
2021/07/04 03:41:49;;;;;;;16.58;9.32;;;;;;;15.13;99.30;95358.88;5062237;28;20425;-77
2021/07/04 03:44:15;;;;;;;14.07;9.50;;;;;;;15.15;98.87;95356.72;5054243;28;20132;-77
2021/07/04 03:46:41;;;;;;;16.58;10.30;;;;;;;15.15;99.54;95351.41;5063268;28;20052;-77
2021/07/04 03:49:06;;;;;;;12.88;8.88;;;;;;;15.15;98.87;95346.13;5072549;28;20505;-77
2021/07/04 03:51:32;;;;;;;15.93;9.05;;;;;;;15.18;99.05;95350.81;5070117;28;20040;-77
2021/07/04 03:53:57;;;;;;;12.27;8.82;;;;;;;15.18;99.32;95346.28;5062204;28;20219;-77
2021/07/04 03:56:23;;;;;;;12.90;9.68;;;;;;;15.17;99.42;95338.63;5063805;28;20043;-77
2021/07/04 03:58:49;;;;;;;16.10;9.80;;;;;;;15.21;99.69;95339.59;5068543;28;20042;-77
2021/07/04 04:01:19;;;;;;;11.45;8.82;;;;;;;15.23;99.19;95342.75;5069349;28;20505;-77
2021/07/04 04:03:46;;;;;;;13.93;9.27;;;;;;;15.25;99.33;95335.25;5071310;28;20044;-77
2021/07/04 04:06:12;;;;;;;14.40;9.15;;;;;;;15.24;99.17;95333.69;5076896;28;20071;-77
2021/07/04 04:08:38;;;;;;;13.93;9.07;;;;;;;15.26;99.26;95326.22;5059335;28;20494;-77
2021/07/04 04:11:07;;;;;;;12.20;8.88;;;;;;;15.30;99.36;95332.50;5076758;28;20033;-77
2021/07/04 04:13:32;;;;;;;15.45;9.55;;;;;;;15.30;99.48;95327.19;5071418;28;20546;-77
2021/07/04 04:15:58;;;;;;;16.08;9.85;;;;;;;15.30;99.78;95332.50;5070213;28;20060;-77
2021/07/04 04:18:23;;;;;;;15.30;9.27;;;;;;;15.29;99.41;95333.56;5059152;28;20032;-77
2021/07/04 04:20:49;;;;;;;13.25;9.25;;;;;;;15.35;98.83;95339.53;5069561;28;20114;-77
2021/07/04 04:23:14;;;;;;;13.57;9.65;;;;;;;15.32;99.09;95338.25;5064131;28;20041;-77
2021/07/04 04:25:40;;;;;;;13.18;9.23;;;;;;;15.33;99.14;95337.19;5066060;28;20040;-77
2021/07/04 04:28:05;;;;;;;13.55;9.05;;;;;;;15.31;98.80;95344.66;5067217;28;20059;-77
2021/07/04 04:30:32;;;;;;;13.70;9.40;;;;;;;15.31;98.81;95338.56;5057512;28;20060;-76
2021/07/04 04:32:58;;;;;;;13.10;8.55;;;;;;;15.31;98.25;95343.88;5076642;28;20047;-77
2021/07/04 04:35:24;;;;;;;14.15;9.23;;;;;;;15.30;98.57;95348.41;5068734;28;20036;-77
2021/07/04 04:37:50;;;;;;;15.65;9.13;;;;;;;15.29;98.66;95340.75;5064971;28;20062;-77
2021/07/04 04:40:15;;;;;;;13.57;9.25;;;;;;;15.28;98.63;95342.59;5066221;28;20033;-77
2021/07/04 04:42:41;;;;;;;11.20;8.65;;;;;;;15.26;98.24;95336.84;5065233;28;20044;-77
2021/07/04 04:45:07;;;;;;;13.50;9.35;;;;;;;15.30;99.41;95347.59;5059661;28;20410;-77
2021/07/04 04:47:33;;;;;;;10.82;8.55;;;;;;;15.31;98.22;95349.94;5064770;28;20040;-77
2021/07/04 04:49:58;;;;;;;11.98;8.70;;;;;;;15.36;98.36;95352.47;5072357;28;20042;-77
2021/07/04 04:52:24;;;;;;;12.43;8.85;;;;;;;15.36;98.55;95339.22;5071609;28;20054;-77
2021/07/04 04:54:49;;;;;;;12.65;8.50;;;;;;;15.31;98.24;95339.34;5085515;28;20033;-76
2021/07/04 04:57:15;;;;;;;14.38;9.15;;;;;;;15.33;98.51;95347.78;5054783;28;20055;-77
2021/07/04 04:59:40;;;;;;;10.75;8.20;;;;;;;15.30;98.30;95343.09;5058958;28;20044;-77
2021/07/04 05:02:06;;;;;;;13.05;9.20;;;;;;;15.30;99.04;95348.41;5065259;28;20043;-77
2021/07/04 05:04:33;;;;;;;12.30;8.90;;;;;;;15.34;98.69;95345.91;5066494;28;20045;-77
2021/07/04 05:06:58;;;;;;;13.88;9.18;;;;;;;15.38;98.51;95339.69;5056960;28;20064;-76
2021/07/04 05:09:24;;;;;;;12.93;8.55;;;;;;;15.38;98.24;95339.69;5060419;28;20043;-77
2021/07/04 05:11:50;;;;;;;14.45;8.45;;;;;;;15.40;98.03;95337.53;5067139;28;20405;-77
2021/07/04 05:14:16;;;;;;;15.00;8.18;;;;;;;15.46;97.42;95340.03;5070056;28;20044;-77
2021/07/04 05:16:42;;;;;;;11.70;8.20;;;;;;;15.50;97.47;95336.50;5069627;28;20040;-77
2021/07/04 05:19:08;;;;;;;11.35;8.05;;;;;;;15.43;96.72;95330.84;5078216;28;20039;-77
2021/07/04 05:21:34;;;;;;;11.35;7.97;;;;;;;15.49;96.97;95336.81;5064934;28;20047;-77
2021/07/04 05:24:01;;;;;;;12.07;8.48;;;;;;;15.54;97.54;95337.47;5066063;28;20098;-77
2021/07/04 05:26:27;;;;;;;13.00;8.25;;;;;;;15.55;96.92;95327.63;5070602;28;20033;-77
2021/07/04 05:28:53;;;;;;;12.13;8.50;;;;;;;15.70;97.11;95326.44;5074164;28;20070;-77
2021/07/04 05:31:19;;;;;;;10.65;7.63;;;;;;;15.75;96.74;95327.06;5084291;28;20091;-77
2021/07/04 05:33:44;;;;;;;11.02;8.18;;;;;;;15.82;96.72;95320.59;5062670;28;20037;-77
2021/07/04 05:36:10;;;;;;;10.57;7.95;;;;;;;15.85;96.65;95328.72;5052835;28;20045;-77
2021/07/04 05:38:37;;;;;;;10.82;8.23;;;;;;;15.87;96.59;95328.41;5071284;28;20041;-76
2021/07/04 05:41:03;;;;;;;9.20;7.05;;;;;;;16.02;94.63;95325.34;5066006;28;20078;-76
2021/07/04 05:43:29;;;;;;;10.50;8.02;;;;;;;15.90;96.52;95317.16;5066209;28;20510;-77
2021/07/04 05:45:59;;;;;;;11.60;8.27;;;;;;;15.91;96.32;95313.44;5063199;28;20042;-77
2021/07/04 05:48:26;;;;;;;10.48;7.80;;;;;;;15.93;95.68;95324.50;5071022;28;20037;-77
2021/07/04 05:50:52;;;;;;;9.93;7.72;;;;;;;15.94;96.31;95318.13;5063670;28;20032;-77
2021/07/04 05:53:18;;;;;;;11.68;7.85;;;;;;;15.99;95.53;95312.69;5066042;28;20487;-76
2021/07/04 05:55:43;;;;;;;9.82;7.65;;;;;;;16.02;95.57;95325.34;5063283;28;20482;-77
2021/07/04 05:58:09;;;;;;;15.10;7.47;;;;;;;16.17;94.56;95315.38;5071836;28;20044;-76
2021/07/04 06:00:36;;;;;;;10.32;7.88;;;;;;;16.11;95.47;95312.84;5068669;28;20436;-76
2021/07/04 06:03:02;;;;;;;12.05;7.53;;;;;;;16.13;95.50;95323.16;5068611;28;20624;-76
2021/07/04 06:05:28;;;;;;;10.60;7.90;;;;;;;16.18;95.35;95308.97;5082781;28;20034;-77
2021/07/04 06:07:53;;;;;;;9.77;7.40;;;;;;;16.20;95.72;95310.22;5086554;28;20351;-77
2021/07/04 06:10:19;;;;;;;9.38;7.35;;;;;;;16.23;95.75;95308.81;5058022;28;20066;-77
2021/07/04 06:12:44;;;;;;;12.38;7.50;;;;;;;16.34;95.29;95310.09;5060766;28;20405;-77
2021/07/04 06:15:11;;;;;;;9.50;7.15;;;;;;;16.24;93.99;95305.84;5064702;28;20048;-77
2021/07/04 06:17:37;;;;;;;9.88;7.47;;;;;;;16.32;96.14;95298.19;5064040;28;20477;-77
2021/07/04 06:20:04;;;;;;;10.35;7.75;;;;;;;16.40;95.43;95308.81;5067815;28;20037;-77
2021/07/04 06:22:30;;;;;;;8.73;7.10;;;;;;;16.55;94.26;95306.81;5065304;28;20051;-77
2021/07/04 06:24:56;;;;;;;9.68;6.97;;;;;;;16.61;93.32;95310.91;5062177;28;20409;-77
2021/07/04 06:27:21;;;;;;;10.48;7.28;;;;;;;16.62;94.14;95304.47;5068242;28;20052;-77
2021/07/04 06:29:47;;;;;;;8.57;7.18;;;;;;;16.65;93.97;95298.56;5059835;28;20047;-77
2021/07/04 06:32:12;;;;;;;8.02;6.68;;;;;;;16.69;93.27;95291.50;5055679;28;20445;-77
2021/07/04 06:34:38;;;;;;;10.90;6.65;;;;;;;16.77;93.00;95301.34;5064364;28;20092;-77
2021/07/04 06:37:04;;;;;;;8.10;6.40;;;;;;;16.82;92.00;95302.28;5068333;28;20067;-77
2021/07/04 06:39:29;;;;;;;7.80;6.28;;;;;;;16.80;91.05;95306.03;5072003;28;20505;-77
2021/07/04 06:41:55;;;;;;;7.75;6.22;;;;;;;16.82;94.29;95302.28;5062614;28;20106;-77
2021/07/04 06:44:20;;;;;;;7.68;5.97;;;;;;;16.92;92.60;95301.97;5064696;28;20047;-78
2021/07/04 06:46:46;;;;;;;7.82;5.97;;;;;;;16.95;92.00;95301.34;5085352;28;20040;-77
2021/07/04 06:49:11;;;;;;;7.03;5.80;;;;;;;16.99;91.97;95302.28;5063119;28;20040;-77
2021/07/04 06:51:37;;;;;;;8.10;6.30;;;;;;;17.02;91.53;95295.56;5074587;28;20559;-77
2021/07/04 06:54:02;;;;;;;8.18;6.28;;;;;;;16.98;92.34;95306.03;5066381;28;20089;-77
2021/07/04 06:56:28;;;;;;;7.53;5.57;;;;;;;16.91;91.06;95300.41;5057906;28;20051;-77
2021/07/04 06:58:53;;;;;;;9.07;5.75;;;;;;;16.99;91.07;95296.97;5070532;28;20081;-77
2021/07/04 07:01:19;;;;;;;8.05;6.15;;;;;;;17.07;90.95;95293.53;5071633;28;20102;-77
2021/07/04 07:03:44;;;;;;;8.85;5.97;;;;;;;17.06;90.47;95296.50;5065215;28;20037;-77
2021/07/04 07:06:10;;;;;;;9.38;6.20;;;;;;;17.06;90.90;95291.19;5083288;28;20113;-77
2021/07/04 07:08:35;;;;;;;7.70;5.70;;;;;;;17.10;91.05;95292.13;5058573;28;20535;-77
2021/07/04 07:11:01;;;;;;;7.70;5.80;;;;;;;17.21;91.08;95292.53;5054148;28;20049;-77
2021/07/04 07:13:27;;;;;;;9.02;5.20;;;;;;;17.34;91.43;95301.44;5074664;28;20033;-77
2021/07/04 07:15:52;;;;;;;7.13;5.75;;;;;;;17.36;89.25;95294.69;5065604;28;20460;-77
2021/07/04 07:18:18;;;;;;;8.73;5.63;;;;;;;17.30;91.09;95295.97;5062498;28;20111;-77
2021/07/04 07:20:43;;;;;;;7.43;6.10;;;;;;;17.35;91.45;95303.78;5068676;28;20047;-77
2021/07/04 07:23:09;;;;;;;7.43;5.40;;;;;;;17.42;90.06;95293.44;5058168;28;20047;-77
2021/07/04 07:25:34;;;;;;;6.80;5.43;;;;;;;17.47;91.09;95295.16;5067381;28;20051;-78
2021/07/04 07:28:00;;;;;;;8.55;5.43;;;;;;;17.43;90.46;95284.34;5061165;28;20045;-77
2021/07/04 07:30:26;;;;;;;6.90;5.20;;;;;;;17.31;89.90;95286.88;5064141;28;20041;-77
2021/07/04 07:32:52;;;;;;;6.13;4.50;;;;;;;17.22;88.88;95288.81;5060356;28;20114;-77
2021/07/04 07:35:18;;;;;;;5.82;4.68;;;;;;;17.12;89.50;95285.41;5080153;28;20041;-77
2021/07/04 07:37:45;;;;;;;9.00;5.00;;;;;;;17.08;90.75;95279.16;5072279;28;20043;-77
2021/07/04 07:40:11;;;;;;;6.95;5.30;;;;;;;17.08;91.08;95284.47;5072710;28;20037;-77
2021/07/04 07:42:37;;;;;;;6.72;5.00;;;;;;;17.14;91.04;95287.72;5078085;28;20059;-77
2021/07/04 07:45:04;;;;;;;6.18;4.60;;;;;;;17.13;89.50;95280.84;5068892;28;20036;-77
2021/07/04 07:47:30;;;;;;;7.13;4.63;;;;;;;16.95;88.92;95280.09;5088591;28;20043;-77
2021/07/04 07:49:59;;;;;;;5.28;4.20;;;;;;;17.05;90.21;95274.47;5074464;28;20041;-77
2021/07/04 07:52:25;;;;;;;6.65;4.40;;;;;;;17.21;91.71;95265.97;5089624;28;20043;-77
2021/07/04 07:54:50;;;;;;;5.70;4.65;;;;;;;17.46;90.43;95267.75;5075196;28;20091;-77
2021/07/04 07:57:16;;;;;;;6.93;4.68;;;;;;;17.63;89.76;95255.50;5076041;28;20037;-77
2021/07/04 07:59:42;;;;;;;6.20;4.90;;;;;;;17.66;91.09;95246.88;5076679;28;20044;-77
2021/07/04 08:02:09;;;;;;;6.68;4.63;;;;;;;17.81;91.25;95241.00;5070970;28;20047;-77
2021/07/04 08:04:36;;;;;;;5.68;4.55;;;;;;;18.03;90.48;95246.38;5077087;28;20040;-77
2021/07/04 08:07:02;;;;;;;7.68;4.65;;;;;;;17.90;87.69;95248.97;5073249;28;20083;-77
2021/07/04 08:09:27;;;;;;;6.35;4.57;;;;;;;17.89;87.09;95257.25;5068723;28;20112;-77
2021/07/04 08:11:53;;;;;;;6.70;4.80;;;;;;;17.69;89.33;95256.84;5074650;28;20047;-77
2021/07/04 08:14:19;;;;;;;6.05;4.63;;;;;;;17.73;88.44;95260.44;5079488;28;20070;-77
2021/07/04 08:16:44;;;;;;;6.45;4.53;;;;;;;17.87;87.40;95259.44;5060973;28;20094;-77
2021/07/04 08:19:10;;;;;;;5.88;4.20;;;;;;;17.65;88.09;95258.59;5069012;28;20164;-77
2021/07/04 08:21:36;;;;;;;6.85;4.72;;;;;;;17.66;88.19;95244.97;5081448;28;20045;-77
2021/07/04 08:24:02;;;;;;;7.93;4.45;;;;;;;17.74;88.93;95250.56;5080925;28;20036;-77
2021/07/04 08:26:28;;;;;;;6.07;3.90;;;;;;;17.92;88.31;95236.09;5074043;28;20091;-77
2021/07/04 08:28:53;;;;;;;5.45;3.95;;;;;;;18.05;85.32;95222.88;5084232;28;20032;-77
2021/07/04 08:31:19;;;;;;;5.38;3.85;;;;;;;18.18;85.64;95222.59;5077366;28;20047;-77
2021/07/04 08:33:44;;;;;;;4.63;3.40;;;;;;;18.30;82.50;95219.25;5073933;28;20101;-77
2021/07/04 08:36:10;;;;;;;5.10;3.15;;;;;;;18.23;80.10;95197.69;5068114;28;20077;-77
2021/07/04 08:38:36;;;;;;;4.50;3.30;;;;;;;18.20;82.79;95182.31;5075513;28;20573;-77
2021/07/04 08:41:03;;;;;;;4.28;3.10;;;;;;;18.22;84.08;95174.03;5074874;28;20416;-77
2021/07/04 08:43:36;;;;;;;5.13;3.70;;;;;;;18.08;83.99;95180.38;5088322;28;20060;-77
2021/07/04 08:46:04;;;;;;;4.75;2.97;;;;;;;18.33;83.68;95183.16;5070556;28;20040;-77
2021/07/04 08:48:32;;;;;;;4.40;3.30;;;;;;;18.34;83.23;95187.38;5069987;28;20414;-77
2021/07/04 08:50:58;;;;;;;3.95;3.17;;;;;;;18.24;80.53;95183.22;5070752;28;20111;-77
2021/07/04 08:53:24;;;;;;;4.10;3.00;;;;;;;18.31;80.40;95191.47;5074143;28;20085;-77
2021/07/04 08:55:50;;;;;;;4.20;3.05;;;;;;;18.47;80.33;95191.66;5061774;28;20051;-78
2021/07/04 08:58:22;;;;;;;3.78;2.58;;;;;;;18.50;77.78;95201.69;5067347;28;20044;-77
2021/07/04 09:01:07;;;;;;;5.65;3.10;;;;;;;18.45;82.17;95188.53;5078356;28;20090;-78
2021/07/04 09:03:32;;;;;;;5.30;3.05;;;;;;;18.32;79.26;95186.94;5084736;28;20851;-78
2021/07/04 09:05:58;;;;;;;4.45;2.42;;;;;;;18.34;79.03;95182.06;5089834;28;20045;-78
2021/07/04 09:08:23;;;;;;;4.93;3.08;;;;;;;18.42;77.90;95189.19;5060084;28;20083;-78
2021/07/04 09:11:18;;;;;;;4.47;2.80;;;;;;;18.63;80.61;95183.03;5064227;28;20615;-77
2021/07/04 09:13:48;;;;;;;4.38;2.58;;;;;;;19.06;73.26;95189.84;5067914;28;20032;-78
2021/07/04 09:16:17;;;;;;;3.15;2.40;;;;;;;18.94;74.80;95181.84;5063511;28;20059;-81
2021/07/04 09:18:43;;;;;;;3.28;2.58;;;;;;;19.20;74.37;95179.63;5064093;28;20040;-76
2021/07/04 09:21:16;;;;;;;3.40;2.47;;;;;;;19.36;71.28;95181.63;5074069;28;20437;-75
2021/07/04 09:23:42;;;;;;;3.72;2.55;;;;;;;19.46;68.75;95185.75;5070213;28;20053;-78
2021/07/04 09:26:38;;;;;;;3.78;2.55;;;;;;;19.54;75.30;95188.31;5069312;28;20040;-78
2021/07/04 09:29:04;;;;;;;3.75;2.40;;;;;;;19.73;71.55;95192.31;5064674;28;20039;-78
2021/07/04 09:31:29;;;;;;;3.90;2.58;;;;;;;19.76;71.76;95183.63;5098399;28;20039;-78
2021/07/04 09:34:21;;;;;;;4.13;2.25;;;;;;;19.96;68.44;95192.63;5070952;28;20422;-76
2021/07/04 09:36:55;;;;;;;6.65;2.47;;;;;;;19.95;70.35;95180.38;5063614;28;20053;-75
2021/07/04 09:39:22;;;;;;;7.38;2.80;;;;;;;20.00;69.33;95177.50;5065610;28;20037;-76
2021/07/04 09:42:08;;;;;;;4.22;2.85;;;;;;;20.05;72.92;95179.91;5069989;28;20040;-75
2021/07/04 09:44:34;;;;;;;4.70;2.90;;;;;;;19.90;72.57;95177.97;5067778;28;20041;-75
2021/07/04 09:47:19;;;;;;;3.80;2.60;;;;;;;19.96;71.44;95173.16;5065202;28;20049;-75
2021/07/04 09:49:46;;;;;;;5.22;3.20;;;;;;;20.21;70.31;95171.97;5066445;28;20044;-75
2021/07/04 09:52:20;;;;;;;4.32;2.90;;;;;;;20.13;67.39;95170.22;5066892;28;20041;-76
2021/07/04 09:55:19;;;;;;;6.20;3.00;;;;;;;20.10;69.16;95170.91;5060350;28;20041;-77
2021/07/04 09:57:55;;;;;;;4.18;2.78;;;;;;;20.02;72.70;95158.44;5067392;28;20045;-77
2021/07/04 10:00:24;;;;;;;4.85;2.65;;;;;;;20.36;70.97;95167.03;5077155;28;20060;-78
2021/07/04 10:03:10;;;;;;;4.82;2.88;;;;;;;20.56;70.40;95166.03;5065687;28;20111;-78
2021/07/04 10:05:58;;;;;;;4.00;3.15;;;;;;;20.41;69.84;95154.22;5073651;28;20048;-78
2021/07/04 10:08:25;;;;;;;4.35;2.90;;;;;;;20.18;70.49;95156.59;5061022;28;20045;-78
2021/07/04 10:10:54;;;;;;;5.32;2.97;;;;;;;20.48;69.14;95145.59;5065414;28;20130;-78
2021/07/04 10:13:20;;;;;;;3.90;3.00;;;;;;;20.44;69.43;95147.38;5056792;28;20044;-75
2021/07/04 10:15:46;;;;;;;4.88;3.00;;;;;;;20.64;70.14;95158.22;5063113;28;20055;-76
2021/07/04 10:18:12;;;;;;;3.42;2.65;;;;;;;21.03;64.97;95150.41;5063717;28;20041;-76
2021/07/04 10:20:40;;;;;;;6.32;3.05;;;;;;;21.23;66.40;95144.03;5071030;28;20409;-76
2021/07/04 10:23:17;;;;;;;4.10;2.95;;;;;;;21.34;64.69;95138.94;5064799;28;20047;-76
2021/07/04 10:25:44;;;;;;;3.50;2.60;;;;;;;21.64;65.46;95119.72;5069323;28;20447;-74
2021/07/04 10:28:15;;;;;;;3.33;2.60;;;;;;;21.96;63.40;95120.38;5062258;28;20036;-76
2021/07/04 10:30:41;;;;;;;3.58;2.70;;;;;;;22.13;62.73;95110.38;5056783;28;20055;-75
2021/07/04 10:33:15;;;;;;;5.53;2.72;;;;;;;22.40;62.66;95105.19;5059572;28;20036;-75
2021/07/04 10:35:55;;;;;;;4.85;2.80;;;;;;;22.62;63.71;95096.38;5064714;28;20041;-75
2021/07/04 10:38:20;;;;;;;4.25;2.70;;;;;;;22.56;64.25;95091.66;5051498;28;20048;-75
2021/07/04 10:40:46;;;;;;;4.45;2.92;;;;;;;23.35;60.87;95085.66;5065093;28;20032;-76
2021/07/04 10:43:48;;;;;;;4.05;2.80;;;;;;;23.95;57.50;95086.84;5063874;28;20040;-75
2021/07/04 10:46:13;;;;;;;4.50;2.90;;;;;;;24.01;56.16;95090.75;5070577;28;20036;-75
2021/07/04 10:48:55;;;;;;;3.92;3.00;;;;;;;22.79;58.96;95089.00;5067240;28;20040;-76
2021/07/04 10:51:22;;;;;;;5.72;3.00;;;;;;;23.18;59.91;95088.84;5063312;28;20036;-75
2021/07/04 10:53:47;;;;;;;3.85;2.95;;;;;;;22.77;60.17;95093.91;5053613;28;20093;-76
2021/07/04 10:56:35;;;;;;;3.75;2.78;;;;;;;22.52;57.65;95091.59;5060994;28;20064;-75
2021/07/04 10:59:02;;;;;;;4.72;2.70;;;;;;;22.34;60.15;95085.94;5062665;28;20039;-76
2021/07/04 11:01:57;;;;;;;3.78;2.92;;;;;;;22.67;59.10;95082.66;5067805;28;20040;-75
2021/07/04 11:04:49;;;;;;;3.60;2.92;;;;;;;22.36;59.37;95077.53;5057740;28;20037;-74
2021/07/04 11:07:15;;;;;;;4.43;3.00;;;;;;;22.53;59.11;95077.06;5059216;28;20063;-74
2021/07/04 11:09:52;;;;;;;4.72;2.55;;;;;;;22.66;57.64;95072.31;5068078;28;20033;-75
2021/07/04 11:12:29;;;;;;;4.45;2.75;;;;;;;22.34;61.51;95069.06;5067382;28;20036;-75
2021/07/04 11:15:10;;;;;;;5.90;2.80;;;;;;;22.06;61.99;95067.38;5065925;28;20032;-75
2021/07/04 11:17:55;;;;;;;3.90;2.80;;;;;;;21.79;61.77;95067.22;5055216;28;20056;-74
2021/07/04 11:20:28;;;;;;;3.60;2.67;;;;;;;22.06;61.69;95067.38;5060499;28;20072;-75
2021/07/04 11:22:54;;;;;;;3.35;2.65;;;;;;;22.41;60.05;95069.19;5065372;28;20116;-75
2021/07/04 11:25:21;;;;;;;4.03;2.67;;;;;;;22.41;61.33;95066.50;5074705;28;20494;-74
2021/07/04 11:28:15;;;;;;;4.35;2.80;;;;;;;22.54;58.79;95057.19;5065581;28;20656;-75